Flight Track Log - Related Links

Times and Time Zones

All times are in EDT time to prevent confusion due to time zone crossing. See the ASH3766 flight status page for this flight to view local times or setup timezone preferences in your user account.

Time Position Orientation Groundspeed Altitude Reporting Facility
EDT Latitude Longitude Course Direction KTS MPH feet Rate Location/Type
Sat 07:54:44 PM 42.7972 -73.8100 354° North 167 192 2,500  Level Boston Center
Sat 07:55:14 PM 42.8208 -73.8222 339° North 192 221 3,800 3,065 Climbing Boston Center
Sat 07:56:16 PM 42.8681 -73.8831 317° Northwest 218 251 7,200 3,220 Climbing Boston Center
Sat 07:57:17 PM 42.9100 -73.9406 315° West 216 249 10,400 2,852 Climbing Boston Center
Sat 07:58:00 PM 42.2867 -74.2764 180° South  Level Estimated
Sat 07:58:18 PM 42.9353 -74.0117 296° West 230 265 13,000  Level Boston Center
Sat 07:59:00 PM 42.1940 -74.3705 180° South  Level Estimated
Sat 07:59:20 PM 42.8692 -74.0569 207° Southwest 273 314 15,000  Level Boston Center
Sat 08:00:21 PM 42.7739 -74.0536 179° South 346 398 15,800 1,279 Climbing Boston Center
Sat 08:01:22 PM 42.6664 -74.0492 178° South 390 449 17,600 1,672 Climbing Boston Center
Sat 08:02:23 PM 42.5642 -74.0458 179° South 399 459 19,200 1,659 Climbing Boston Center
Sat 08:03:25 PM 42.4500 -74.0425 179° South 409 471 21,000 1,707 Climbing Boston Center
Sat 08:04:26 PM 42.3317 -74.0383 179° South 422 486 22,700 1,623 Climbing Boston Center
Sat 08:05:27 PM 42.1842 -74.0361 179° South 439 505 24,300 1,475 Climbing Boston Center
Sat 08:06:28 PM 42.0572 -74.0458 183° South 454 522 25,700 843 Climbing Boston Center
Sat 08:07:28 PM 41.9269 -74.0542 183° South 465 535 26,000 148 Climbing Boston Center
Sat 08:08:30 PM 41.7903 -74.0619 182° South 484 557 26,000 -50 Level Boston Center
Sat 08:09:29 PM 41.6636 -74.1264 201° Southwest 494 568 25,900 -48 Descending Boston Center
Sat 08:10:34 PM 41.5381 -74.2050 205° Southwest 497 572 25,900 49 Level Boston Center
Sat 08:11:32 PM 41.4153 -74.2806 205° Southwest 489 563 26,000 50 Climbing Boston Center
Sat 08:12:33 PM 41.2686 -74.3697 205° Southwest 485 558 26,000  Level Boston Center
Sat 08:13:34 PM 41.1981 -74.4653 226° Southwest 457 526 26,000 -50 Level Boston Center
Sat 08:14:33 PM 41.0883 -74.5619 214° Southwest 462 532 25,900 -50 Descending New York Center
Sat 08:15:33 PM 41.0050 -74.6892 229° Southwest 449 517 25,900 50 Level New York Center
Sat 08:16:33 PM 40.9397 -74.8283 238° Southwest 449 517 26,000 50 Climbing New York Center
Sat 08:17:33 PM 40.8683 -74.9667 236° Southwest 454 522 26,000  Level New York Center
Sat 08:18:33 PM 40.7947 -75.0992 234° Southwest 459 528 26,000 -400 Level New York Center
Sat 08:19:33 PM 40.7189 -75.2367 234° Southwest 464 534 25,200 -1,150 Descending New York Center
Sat 08:20:33 PM 40.6336 -75.3925 234° Southwest 464 534 23,700 -1,350 Descending New York Center
Sat 08:21:33 PM 40.5575 -75.5267 233° Southwest 464 534 22,500 -1,200 Descending New York Center
Sat 08:22:33 PM 40.4833 -75.6581 233° Southwest 464 534 21,300 -1,200 Descending New York Center
Sat 08:23:33 PM 40.4089 -75.7919 234° Southwest 464 534 20,100 -650 Descending New York Center
Sat 08:24:33 PM 40.3325 -75.9197 232° Southwest 459 528 20,000 -50 Descending New York Center
Sat 08:25:33 PM 40.2606 -76.0422 232° Southwest 448 516 20,000  Level New York Center
Sat 08:26:33 PM 40.1969 -76.1542 233° Southwest 443 510 20,000  Level New York Center
Sat 08:27:33 PM 40.1264 -76.2819 234° Southwest 436 502 20,000 -500 Level New York Center
Sat 08:28:33 PM 40.0594 -76.4231 238° Southwest 429 494 19,000 -1,100 Descending New York Center
Sat 08:29:33 PM 39.9967 -76.5536 238° Southwest 422 486 17,800 -1,300 Descending New York Center
Sat 08:30:33 PM 39.9383 -76.6814 239° Southwest 417 480 16,400 -824 Descending New York Center
Sat 08:32:57 PM 39.8000 -76.9500 236° Southwest 390 449 15,000 -804 Descending Potomac TRACON
Sat 08:34:02 PM 39.7333 -77.1000 240° Southwest 390 449 13,600 -1,381 Descending Potomac TRACON
Sat 08:35:03 PM 39.6833 -77.2167 241° Southwest 393 452 12,100 -1,409 Descending Potomac TRACON
Sat 08:35:57 PM 39.6167 -77.2667 210° Southwest 363 418 10,900 -1,368 Descending Potomac TRACON
Sat 08:36:57 PM 39.5333 -77.3000 197° South 314 361 9,500 -1,550 Descending Potomac TRACON
Sat 08:37:57 PM 39.4500 -77.3500 205° Southwest 287 330 7,800 -1,700 Descending Potomac TRACON
Sat 08:38:57 PM 39.3833 -77.3667 191° South 279 321 6,100 -1,400 Descending Potomac TRACON
Sat 08:39:57 PM 39.3000 -77.3667 180° South 273 314 5,000 -579 Descending Potomac TRACON
Sat 08:40:51 PM 39.2333 -77.3667 180° South 271 312 5,000  Level Potomac TRACON
Sat 08:41:57 PM 39.1500 -77.3500 171° South 272 313 5,000 -333 Level Potomac TRACON
Sat 08:42:57 PM 39.0667 -77.3500 180° South 272 313 4,300 -500 Descending Potomac TRACON
Sat 08:43:57 PM 39.0000 -77.3500 180° South 265 305 4,000 -474 Descending Potomac TRACON
Sat 08:44:51 PM 38.9333 -77.3500 180° South 229 264 3,400 -496 Descending Potomac TRACON
Sat 08:45:58 PM 38.8667 -77.3500 180° South 222 255 3,000 -283 Descending Potomac TRACON
Sat 08:46:58 PM 38.8000 -77.3667 191° South 230 265 2,800 -500 Descending Potomac TRACON
Sat 08:47:58 PM 38.8000 -77.4333 270° West 233 268 2,000 -545 Descending Potomac TRACON
Sat 08:48:59 PM 38.8500 -77.4333 360° North 162 186 1,700 -446 Descending Potomac TRACON
Sat 08:49:59 PM 38.8833 -77.4333 360° North 128 147 1,100 -600 Descending Potomac TRACON

Login

Don't have an account? Register now (free) for customized features, flight alerts, and more!